Historyczne dane pomiarowe

Dodano dane terminowe – wersja testowa.

Dane z okresu 1951-2019

Wersja bazy: 1.34 [2019-03-16, lista zmian], aktualizacja planowana na 2019-04-15

Dane meteo z obszaru Polski uzyskane na podstawie danych udostępnionych przez Instytut Meteorologii i Gospodarki Wodnej – Państwowy Instytut Badawczy.

 

Wybierz Datę:    

       

TemperaturaWilgotnośćWiatrCiśnienieOpadyŚniegCzas trwania zjawisk
 Stacja t tx tn tng RH VA  wxwx mslp ppp RRR   cm mm wxwxwxwxwxwxwx
1983-08-14 14.3 19.0 10.0- 72.5- 1.3 2.7---- 0.0------------
1983-08-13 13.7 16.8 11.4- 82.0- 5.7 5.0---- 1.1------------
1983-08-12 16.2 20.7 12.4- 81.3- 6.0 4.3---- 0.4------------
1983-08-11 19.4 27.5 11.4- 72.3- 0.7 0.7---- 0.0------------
1983-08-10 19.2 27.5 9.9- 71.3- 0.0 1.3---- 0.0------------
1983-08-09 18.3 26.5 9.0- 77.5- 3.7 1.3---- 0.0------------
1983-08-08 18.4 24.0 13.8- 81.5- 2.3 2.7---- 0.0------------
1983-08-07 16.9 24.5 8.9- 82.5- 1.0 1.0---- 0.0------------
1983-08-06 15.1 21.5 7.4- 81.3- 3.7 0.7---- 0.0------------
1983-08-05 14.3 16.9 12.8- 88.8- 6.0 1.7---- 0.0------------
1983-08-04 13.9 15.3 11.4- 99.5- 8.0 4.0---- 4.9------------
1983-08-03 14.6 20.4 11.9- 94.3- 8.0 7.3---- 43.0------------
1983-08-02 20.4 29.0 16.2- 80.3- 5.7 1.0---- 5.1------------
1983-08-01 22.2 31.9 9.9- 43.0- 0.3 5.7---- 0.0------------
1983-07-31 18.7 25.5 11.1- 63.8- 0.0 1.0---- 0.0------------
1983-07-30 16.0 18.0 14.4- 76.5- 5.3 6.3---- 0.0------------
1983-07-29 16.7 20.0 13.0- 81.0- 5.7 6.7---- 2.3------------
1983-07-28 18.9 24.4 16.3- 79.3- 6.7 4.3---- 0.0------------
1983-07-27 22.7 33.0 12.4- 55.0- 5.0 3.0---- 0.0------------
1983-07-26 18.8 26.6 7.9- 72.3- 0.0 0.0---- 0.0------------
1983-07-25 17.9 24.1 7.4- 70.3- 0.0 1.0---- 0.0------------
1983-07-24 16.3 20.5 10.4- 82.3- 6.7 1.0---- 0.0------------
1983-07-23 18.7 23.4 12.9- 67.5- 0.0 3.0---- 0.0------------
1983-07-22 15.2 19.4 10.5- 83.8- 5.0 4.3---- 0.3------------
1983-07-21 13.5 18.1 7.8- 69.8- 1.7 5.7---- 0.1------------
1983-07-20 12.7 17.1 9.4- 76.8- 4.3 6.7---- 3.4------------
1983-07-19 18.7 26.0 17.1- 74.8- 5.7 4.3---- 4.8------------
1983-07-18 22.2 31.5 10.1- 63.0- 1.3 2.0---- 5.0------------
1983-07-17 17.5 24.6 8.9- 69.0- 2.7 1.3---- 0.0------------
1983-07-16 20.3 23.4 17.3- 66.5- 4.7 3.7---- 0.0------------
1983-07-15 18.7 24.9 11.5- 65.8- 2.7 2.0---- 0.0------------
1983-07-14 19.4 23.6 15.2- 69.3- 2.3 3.0---- 0.0------------
1983-07-13 18.9 23.3 16.4- 90.8- 8.0 2.7---- 3.9------------
1983-07-12 22.2 29.0 15.2- 71.3- 0.0 3.7---- 0.0------------
1983-07-11 20.6 28.6 11.1- 65.8- 4.0 2.0---- 0.0------------
1983-07-10 22.0 29.5 11.5- 60.0- 0.7 2.3---- 0.0------------
1983-07-09 18.8 27.6 8.1- 62.8- 0.7 2.0---- 0.0------------
1983-07-08 18.9 26.4 8.2- 61.3- 0.0 3.3---- 0.0------------
1983-07-07 21.9 28.6 13.9- 51.0- 0.0 4.3---- 0.0------------
1983-07-06 20.0 29.2 8.9- 68.5- 0.0 1.3---- 0.0------------
1983-07-05 17.0 24.1 8.9- 73.3- 0.7 1.3---- 0.0------------
1983-07-04 15.3 20.2 9.4- 78.0- 3.3 3.3---- 0.0------------
1983-07-03 16.4 22.5 9.4- 71.3- 5.0 1.3---- 0.0------------
1983-07-02 15.6 21.0 9.9- 66.8- 2.0 2.0---- 0.0------------
1983-07-01 15.1 22.5 11.4- 85.3- 7.0 2.3---- 0.0------------
1983-06-30 17.2 23.0 13.7- 75.8- 8.0 4.0---- 1.0------------
1983-06-29 12.9 18.3 8.9- 69.8- 6.0 6.0---- 0.0------------
1983-06-28 13.1 16.7 10.6- 73.5- 5.0 6.7---- 1.0------------
1983-06-27 14.7 21.2 9.4- 81.5- 8.0 4.7---- 0.0------------
1983-06-26 15.8 21.1 9.3- 70.5- 2.7 3.0---- 0.0------------
1983-06-25 17.0 24.7 10.5- 69.0- 4.0 6.0---- 1.5------------
1983-06-24 19.2 26.9 6.3- 53.8- 0.0 2.7---- 0.4------------
1983-06-23 16.5 24.0 4.9- 50.3- 0.0 3.0---- 0.0------------
1983-06-22 13.9 21.2 3.5- 62.0- 0.0 4.7---- 0.0------------
1983-06-21 17.0 24.2 9.3- 61.8- 1.3 5.3---- 0.0------------
1983-06-20 17.2 24.1 5.7- 62.3- 0.0 2.3---- 0.0------------
1983-06-19 15.0 22.2 4.4- 56.8- 0.0 5.0---- 0.0------------
1983-06-18 13.0 15.6 9.7- 86.5- 7.0 5.0---- 0.0------------
1983-06-17 12.0 15.5 8.9- 81.5- 8.0 4.3---- 0.0------------
1983-06-16 12.0 15.5 8.0- 78.0- 6.0 7.3---- 0.0------------
695.1 ms

 

Źródłem pochodzenia danych jest Instytut Meteorologii i Gospodarki Wodnej – Państwowy Instytut Badawczy. Dane Instytutu Meteorologii i Gospodarki Wodnej – Państwowego Instytutu Badawczego zostały przetworzone.

Dane źródłowe można odnaleźć na stronie https://dane.imgw.pl